WC StCyr

Date de la prise de vue : 30/07/2021 07:11:13
N'ayant pas de Météo à StCyr, voilà le METAR et le TAF de Villacoublay :
2021/07/30 05:00 LFPV 300500Z AUTO 23005KT 200V260 9999 BKN034 BKN110 14/11 Q1010 NOSIG
2021/07/30 03:51 TAF TAF LFPV 300200Z 3003/3103 24005KT CAVOK TX21/3015Z TN15/3006Z TEMPO 3011/3019 25015G25KT